Time;durP1;ratioP1;P1;durP2;ratioP2;P2;SDS_P1;SDS_P2;PMS_P1;PMS_P2;Temp;Humidity;BMP_temperature;BMP_pressure;BME280_temperature;BME280_humidity;BME280_pressure;Samples;Min_cycle;Max_cycle;Signal;HPM_P1;HPM_P2
2021/06/28 00:00:24;;;;;;;13.40;12.20;;;;;;;19.49;82.94;100310.88;2778603;85;21002;-62
2021/06/28 00:04:28;;;;;;;13.35;11.75;;;;;;;19.50;83.12;100308.52;2778722;85;21010;-62
2021/06/28 00:08:31;;;;;;;14.40;12.60;;;;;;;19.51;82.30;100307.98;2778817;85;20985;-62
2021/06/28 00:12:34;;;;;;;16.55;11.68;;;;;;;19.52;82.40;100303.77;2778701;85;20986;-62
2021/06/28 00:16:37;;;;;;;17.92;12.47;;;;;;;19.47;82.03;100310.73;2778858;85;21029;-62
2021/06/28 00:20:40;;;;;;;14.53;12.13;;;;;;;19.32;82.17;100311.53;2796428;85;21029;-63
2021/06/28 00:24:43;;;;;;;21.23;13.60;;;;;;;19.19;82.95;100310.81;2797147;85;21307;-62
2021/06/28 00:28:45;;;;;;;13.85;12.07;;;;;;;19.09;83.42;100303.50;2796970;84;21006;-62
2021/06/28 00:32:50;;;;;;;13.60;11.55;;;;;;;19.06;83.60;100310.58;2795634;84;21036;-62
2021/06/28 00:36:53;;;;;;;15.20;13.62;;;;;;;18.94;84.10;100309.64;2738356;87;21090;-62
2021/06/28 00:40:56;;;;;;;14.43;12.95;;;;;;;18.93;84.27;100313.36;2737366;86;21023;-62
2021/06/28 00:44:59;;;;;;;15.15;10.68;;;;;;;18.97;84.14;100313.33;2729103;87;21065;-62
2021/06/28 00:49:02;;;;;;;10.58;9.23;;;;;;;19.06;83.86;100317.31;2728971;87;21032;-62
2021/06/28 00:53:09;;;;;;;15.83;9.53;;;;;;;19.06;82.07;100321.36;2729159;87;20984;-62
2021/06/28 00:57:12;;;;;;;20.90;10.75;;;;;;;18.74;80.31;100318.70;2737968;87;21016;-62
2021/06/28 01:01:15;;;;;;;17.48;9.88;;;;;;;18.54;80.87;100320.51;2728633;86;21040;-62
2021/06/28 01:05:24;;;;;;;14.20;9.78;;;;;;;18.51;81.52;100318.17;2728988;86;21036;-62
2021/06/28 01:09:26;;;;;;;14.93;9.75;;;;;;;18.50;81.19;100325.10;2728460;87;21067;-62
2021/06/28 01:13:32;;;;;;;17.32;10.38;;;;;;;18.50;81.49;100317.84;2728773;87;21533;-62
2021/06/28 01:17:37;;;;;;;11.60;9.28;;;;;;;18.54;81.62;100321.03;2730873;86;21064;-63
2021/06/28 01:21:44;;;;;;;15.48;10.53;;;;;;;18.57;81.59;100317.98;2728643;87;21022;-62
2021/06/28 01:25:52;;;;;;;18.73;11.43;;;;;;;18.63;81.95;100313.74;2728590;87;21486;-62
2021/06/28 01:29:57;;;;;;;16.10;10.55;;;;;;;18.49;81.23;100318.04;2729977;87;21075;-62
2021/06/28 01:34:01;;;;;;;20.50;13.50;;;;;;;18.21;82.75;100320.70;2738912;86;21596;-62
2021/06/28 01:38:05;;;;;;;15.00;10.48;;;;;;;18.14;83.89;100325.09;2740722;86;21103;-63
2021/06/28 01:42:08;;;;;;;21.35;11.28;;;;;;;18.01;83.31;100322.92;2740456;86;21011;-62
2021/06/28 01:46:12;;;;;;;18.17;12.63;;;;;;;17.95;84.22;100322.28;2740514;86;21099;-62
2021/06/28 01:50:16;;;;;;;21.40;11.48;;;;;;;17.87;84.20;100316.91;2740861;86;21067;-62
2021/06/28 01:54:19;;;;;;;16.42;11.10;;;;;;;17.89;84.84;100314.91;2740772;87;21063;-62
2021/06/28 01:58:23;;;;;;;19.40;11.08;;;;;;;17.89;84.60;100312.22;2740894;87;21435;-62
2021/06/28 02:02:26;;;;;;;18.30;12.60;;;;;;;17.96;85.06;100318.05;2741008;86;21019;-62
2021/06/28 02:06:28;;;;;;;18.02;12.13;;;;;;;18.06;85.08;100312.50;2740815;87;21035;-62
2021/06/28 02:10:31;;;;;;;20.68;11.90;;;;;;;18.12;84.99;100308.28;2740888;86;21043;-62
2021/06/28 02:14:35;;;;;;;16.30;10.75;;;;;;;18.14;84.06;100308.94;2740985;86;21032;-62
2021/06/28 02:18:37;;;;;;;18.25;11.08;;;;;;;17.99;83.87;100311.50;2745458;86;21506;-62
2021/06/28 02:22:41;;;;;;;19.92;14.28;;;;;;;17.98;84.44;100303.95;2762875;86;21032;-62
2021/06/28 02:26:46;;;;;;;17.32;12.28;;;;;;;18.03;84.43;100299.39;2763193;86;21052;-62
2021/06/28 02:30:50;;;;;;;20.55;14.40;;;;;;;18.12;84.38;100295.67;2762984;86;21064;-62
2021/06/28 02:34:52;;;;;;;18.05;12.75;;;;;;;18.16;84.59;100298.83;2763435;85;21076;-62
2021/06/28 02:38:57;;;;;;;17.40;12.10;;;;;;;18.22;84.17;100302.68;2763192;86;21593;-63
2021/06/28 02:43:00;;;;;;;22.58;13.60;;;;;;;18.22;83.58;100298.64;2762920;85;21064;-62
2021/06/28 02:47:03;;;;;;;29.45;14.38;;;;;;;18.23;83.62;100294.93;2763203;86;21040;-62
2021/06/28 02:51:08;;;;;;;16.27;12.68;;;;;;;18.24;83.43;100295.27;2762955;86;21041;-62
2021/06/28 02:55:12;;;;;;;17.30;13.50;;;;;;;18.09;83.63;100294.68;2763356;86;21032;-62
2021/06/28 02:59:16;;;;;;;14.95;9.88;;;;;;;18.08;83.99;100294.84;2764310;86;21051;-62
2021/06/28 03:03:18;;;;;;;22.62;10.60;;;;;;;18.11;84.33;100294.00;2791855;85;21055;-62
2021/06/28 03:07:21;;;;;;;13.88;9.83;;;;;;;18.20;83.88;100292.59;2796404;85;21008;-62
2021/06/28 03:11:24;;;;;;;15.28;11.70;;;;;;;18.18;83.75;100291.45;2816036;84;21076;-63
2021/06/28 03:15:27;;;;;;;15.90;9.78;;;;;;;18.21;84.03;100291.58;2762714;86;21618;-61
2021/06/28 03:19:30;;;;;;;15.53;10.70;;;;;;;18.19;83.18;100297.66;2788001;85;21082;-63
2021/06/28 03:23:33;;;;;;;23.12;10.95;;;;;;;18.08;83.63;100293.00;2778790;85;21062;-63
2021/06/28 03:27:37;;;;;;;15.40;10.50;;;;;;;18.00;84.06;100298.37;2778733;85;21038;-63
2021/06/28 03:31:39;;;;;;;25.72;10.23;;;;;;;17.97;83.79;100305.45;2778956;85;20990;-63
2021/06/28 03:35:42;;;;;;;23.62;10.03;;;;;;;17.95;83.75;100318.25;2778950;85;20973;-64
2021/06/28 03:39:45;;;;;;;21.48;10.40;;;;;;;18.06;83.83;100319.23;2779101;85;20953;-63
2021/06/28 03:43:48;;;;;;;23.32;10.08;;;;;;;17.94;83.02;100323.30;2778589;85;21009;-62
2021/06/28 03:47:50;;;;;;;21.15;10.03;;;;;;;17.88;83.36;100315.89;2778812;85;21083;-63
2021/06/28 03:51:54;;;;;;;27.10;11.85;;;;;;;17.85;84.09;100323.83;2756931;86;20976;-63
2021/06/28 03:55:57;;;;;;;18.42;11.43;;;;;;;17.90;84.22;100314.72;2757250;86;21035;-63
2021/06/28 04:00:07;;;;;;;25.52;14.20;;;;;;;17.94;84.85;100313.88;2757005;86;21023;-63
2021/06/28 04:04:07;;;;;;;19.20;12.80;;;;;;;18.21;86.33;100316.66;2757041;86;21047;-64
2021/06/28 04:08:10;;;;;;;19.27;13.53;;;;;;;18.49;86.31;100319.39;2779010;85;20974;-64
2021/06/28 04:12:13;;;;;;;20.05;12.73;;;;;;;18.73;86.24;100304.08;2778816;85;21025;-64
2021/06/28 04:16:16;;;;;;;25.15;13.32;;;;;;;18.94;86.07;100316.38;2778350;85;21005;-64
2021/06/28 04:20:24;;;;;;;24.70;16.48;;;;;;;19.18;86.64;100317.23;2788565;84;21073;-64
2021/06/28 04:24:27;;;;;;;21.80;16.37;;;;;;;19.70;90.12;100317.41;2797903;85;21007;-64
2021/06/28 04:28:29;;;;;;;18.32;13.13;;;;;;;20.62;92.58;100313.08;2818464;84;21000;-64
2021/06/28 04:32:34;;;;;;;20.10;14.43;;;;;;;21.41;82.09;100309.95;2770078;86;21036;-64
2021/06/28 04:36:37;;;;;;;18.13;13.80;;;;;;;21.34;80.80;100309.08;2799005;85;21540;-64
2021/06/28 04:40:39;;;;;;;18.50;14.90;;;;;;;21.48;79.10;100312.20;2768651;86;21019;-65
2021/06/28 04:44:42;;;;;;;17.27;12.82;;;;;;;21.47;77.71;100317.80;2798024;85;21000;-66
2021/06/28 04:48:45;;;;;;;25.02;15.18;;;;;;;21.30;77.95;100313.21;2818300;84;20981;-66
2021/06/28 04:52:47;;;;;;;17.07;12.25;;;;;;;21.07;79.26;100316.98;2752312;86;21067;-66
2021/06/28 04:56:50;;;;;;;17.87;14.35;;;;;;;20.81;79.97;100319.73;2818229;84;21032;-66
2021/06/28 05:00:53;;;;;;;17.45;13.88;;;;;;;20.66;80.81;100319.77;2752318;86;21054;-66
2021/06/28 05:04:55;;;;;;;18.62;13.32;;;;;;;20.66;82.06;100313.86;2818197;84;21004;-66
2021/06/28 05:08:58;;;;;;;19.27;13.78;;;;;;;20.77;82.82;100314.37;2752353;86;21056;-66
2021/06/28 05:13:01;;;;;;;39.45;31.80;;;;;;;20.88;82.60;100307.14;2818293;84;20981;-66
2021/06/28 05:17:04;;;;;;;27.10;20.10;;;;;;;21.05;82.91;100306.88;2752764;86;20992;-66
2021/06/28 05:21:07;;;;;;;30.35;20.17;;;;;;;21.34;83.21;100307.72;2817765;84;21068;-66
2021/06/28 05:25:12;;;;;;;27.95;20.48;;;;;;;21.68;81.55;100315.06;2752778;86;21028;-66
2021/06/28 05:29:15;;;;;;;21.40;17.05;;;;;;;21.65;80.11;100316.00;2818867;84;21012;-66
2021/06/28 05:33:18;;;;;;;17.82;15.80;;;;;;;21.63;81.48;100311.27;2752807;86;21967;-66
2021/06/28 05:37:20;;;;;;;24.00;15.93;;;;;;;21.88;81.31;100309.46;2818683;84;21051;-66
2021/06/28 05:41:23;;;;;;;17.40;14.10;;;;;;;22.13;81.30;100311.15;2753178;86;21031;-66
2021/06/28 05:45:26;;;;;;;21.48;15.83;;;;;;;22.32;79.48;100316.85;2819076;84;21016;-65
2021/06/28 05:49:30;;;;;;;22.20;17.02;;;;;;;22.45;79.59;100306.57;2753327;86;21070;-66
2021/06/28 05:53:33;;;;;;;23.73;16.52;;;;;;;22.69;79.66;100307.89;2819103;84;21016;-66
2021/06/28 05:57:37;;;;;;;23.87;18.50;;;;;;;22.90;78.72;100309.60;2799332;85;21028;-66
2021/06/28 06:01:40;;;;;;;24.20;16.42;;;;;;;23.11;79.08;100303.67;2819346;84;21012;-66
2021/06/28 06:05:43;;;;;;;21.23;16.93;;;;;;;23.55;79.65;100309.52;2792190;85;21035;-66
2021/06/28 06:09:46;;;;;;;19.20;14.93;;;;;;;23.93;75.48;100318.81;2792394;85;21063;-66
2021/06/28 06:13:49;;;;;;;20.82;14.18;;;;;;;24.18;74.55;100324.41;2792129;85;21064;-66
2021/06/28 06:17:51;;;;;;;20.12;15.95;;;;;;;24.32;73.03;100329.25;2792742;85;21098;-66
2021/06/28 06:21:54;;;;;;;25.10;14.50;;;;;;;24.33;72.93;100332.28;2741022;85;21048;-66
2021/06/28 06:25:57;;;;;;;23.15;15.55;;;;;;;24.43;72.53;100341.33;2742121;87;21044;-66
2021/06/28 06:30:00;;;;;;;16.15;13.22;;;;;;;24.59;72.20;100342.73;2742202;86;21056;-66
2021/06/28 06:34:03;;;;;;;22.98;14.60;;;;;;;24.68;72.71;100345.48;2741952;86;21079;-67
2021/06/28 06:38:06;;;;;;;14.87;13.38;;;;;;;24.81;72.45;100360.10;2742700;87;20976;-66
2021/06/28 06:42:10;;;;;;;22.17;15.60;;;;;;;24.82;71.71;100354.97;2723849;87;20992;-66
2021/06/28 06:46:13;;;;;;;16.40;14.23;;;;;;;25.07;72.75;100360.97;2742288;86;21012;-66
2021/06/28 06:50:16;;;;;;;18.32;14.05;;;;;;;25.42;73.24;100366.45;2742460;87;21012;-66
2021/06/28 06:54:19;;;;;;;14.70;12.98;;;;;;;25.53;71.00;100367.13;2742676;87;21012;-66
2021/06/28 06:58:22;;;;;;;15.80;12.25;;;;;;;25.44;72.08;100375.22;2742485;87;21028;-66
2021/06/28 07:02:25;;;;;;;15.60;13.95;;;;;;;25.65;72.00;100374.03;2742800;87;20972;-66
2021/06/28 07:06:28;;;;;;;15.28;13.22;;;;;;;25.86;70.84;100368.70;2742488;86;20976;-66
2021/06/28 07:10:31;;;;;;;16.17;13.05;;;;;;;25.90;69.66;100367.70;2742786;87;20996;-66
2021/06/28 07:14:34;;;;;;;17.95;13.22;;;;;;;26.00;69.43;100361.72;2742780;86;21036;-66
2021/06/28 07:18:39;;;;;;;15.63;12.35;;;;;;;26.04;70.38;100354.23;2742834;87;21047;-66
2021/06/28 07:22:42;;;;;;;19.77;13.22;;;;;;;26.22;69.30;100353.96;2820626;84;21079;-66
2021/06/28 07:26:45;;;;;;;12.45;10.32;;;;;;;26.48;68.68;100350.06;2820337;84;21024;-66
2021/06/28 07:30:47;;;;;;;22.82;18.40;;;;;;;26.65;68.81;100344.79;2820475;84;21004;-66
2021/06/28 07:34:50;;;;;;;53.28;34.65;;;;;;;26.55;67.98;100354.08;2819929;84;21048;-66
2021/06/28 07:38:53;;;;;;;22.93;13.50;;;;;;;26.72;67.78;100356.97;2820459;84;21032;-66
2021/06/28 07:42:55;;;;;;;23.22;16.48;;;;;;;27.05;67.45;100353.47;2820615;84;21001;-66
2021/06/28 07:46:58;;;;;;;21.75;12.80;;;;;;;27.33;65.51;100346.53;2820511;84;21249;-66
2021/06/28 07:51:01;;;;;;;16.80;9.25;;;;;;;27.51;64.58;100339.63;2820604;84;21055;-66
2021/06/28 07:55:10;;;;;;;17.10;9.40;;;;;;;27.66;63.04;100332.83;2820419;84;21004;-66
2021/06/28 07:59:12;;;;;;;13.80;9.18;;;;;;;27.83;62.27;100336.20;2820777;84;21040;-65
2021/06/28 08:03:15;;;;;;;11.73;9.18;;;;;;;27.99;61.32;100338.20;2800722;85;21004;-66
2021/06/28 08:07:19;;;;;;;14.43;8.58;;;;;;;28.15;61.11;100348.09;2800517;85;20991;-65
2021/06/28 08:11:25;;;;;;;13.80;7.80;;;;;;;28.29;60.41;100353.59;2800467;85;21023;-66
2021/06/28 08:15:28;;;;;;;10.28;8.40;;;;;;;28.21;61.08;100347.14;2800395;85;21067;-66
2021/06/28 08:19:30;;;;;;;12.55;8.73;;;;;;;28.28;60.67;100340.98;2821518;84;21043;-66
2021/06/28 08:23:33;;;;;;;7.03;6.33;;;;;;;28.49;60.43;100334.02;2808959;85;21027;-66
2021/06/28 08:27:36;;;;;;;9.65;7.08;;;;;;;28.76;58.49;100330.67;2829194;84;20973;-66
2021/06/28 08:31:40;;;;;;;8.55;7.50;;;;;;;28.85;57.96;100337.97;2809348;85;21055;-66
2021/06/28 08:35:42;;;;;;;8.90;7.65;;;;;;;29.02;58.14;100333.05;2809342;85;21026;-66
2021/06/28 08:39:45;;;;;;;13.95;9.75;;;;;;;29.14;57.25;100327.49;2829223;84;20992;-66
2021/06/28 08:43:48;;;;;;;7.80;7.03;;;;;;;29.26;58.27;100327.41;2809547;85;21067;-66
2021/06/28 08:47:51;;;;;;;6.90;6.22;;;;;;;29.40;56.82;100327.36;2809244;85;21027;-66
2021/06/28 08:51:53;;;;;;;12.80;8.00;;;;;;;29.40;56.41;100335.58;2829360;84;21004;-66
2021/06/28 08:55:56;;;;;;;13.35;9.98;;;;;;;29.25;55.86;100336.70;2809553;85;20960;-66
2021/06/28 08:59:59;;;;;;;11.33;8.23;;;;;;;29.27;55.66;100325.80;2809655;85;21003;-66
2021/06/28 09:04:04;;;;;;;10.08;8.68;;;;;;;29.23;55.30;100324.65;2829197;84;21522;-66
2021/06/28 09:08:12;;;;;;;7.40;6.15;;;;;;;29.19;53.61;100321.56;2809732;85;20999;-66
2021/06/28 09:12:17;;;;;;;6.67;6.00;;;;;;;29.29;54.03;100328.30;2829354;84;21004;-66
2021/06/28 09:16:28;;;;;;;6.53;5.87;;;;;;;29.38;53.56;100328.16;2809454;85;21082;-66
2021/06/28 09:20:30;;;;;;;8.28;5.37;;;;;;;29.70;54.85;100330.83;2790727;85;21059;-66
2021/06/28 09:24:37;;;;;;;7.45;5.60;;;;;;;30.11;53.63;100331.38;2754527;85;21569;-66
2021/06/28 09:28:45;;;;;;;7.05;4.97;;;;;;;30.43;52.04;100336.67;2754472;85;21035;-66
2021/06/28 09:32:54;;;;;;;5.28;4.78;;;;;;;30.74;49.83;100330.98;2754510;86;20981;-66
2021/06/28 09:36:58;;;;;;;5.20;4.40;;;;;;;30.96;49.03;100334.23;2754327;86;21036;-65
2021/06/28 09:41:29;;;;;;;6.10;5.50;;;;;;;31.10;47.55;100334.61;2754619;86;21230;-66
2021/06/28 09:45:33;;;;;;;5.75;4.65;;;;;;;30.89;47.43;100334.44;2754398;85;21079;-66
2021/06/28 09:49:36;;;;;;;4.90;4.42;;;;;;;30.74;47.91;100337.03;2754414;86;21012;-66
2021/06/28 09:53:39;;;;;;;17.25;6.20;;;;;;;30.74;48.03;100334.29;2754341;85;21083;-66
2021/06/28 09:58:13;;;;;;;11.15;3.90;;;;;;;30.56;47.54;100332.69;2753875;86;21073;-66
2021/06/28 10:02:25;;;;;;;5.58;3.98;;;;;;;30.55;48.07;100337.37;2754393;85;21027;-66
2021/06/28 10:06:29;;;;;;;3.35;3.02;;;;;;;30.55;48.07;100337.37;2754386;85;20992;-66
2021/06/28 10:10:32;;;;;;;4.10;2.70;;;;;;;30.83;45.28;100339.58;2754390;85;21040;-64
2021/06/28 10:14:35;;;;;;;3.17;2.55;;;;;;;30.87;45.67;100340.73;2754729;85;21008;-64
2021/06/28 10:18:39;;;;;;;4.33;2.95;;;;;;;30.67;45.51;100333.69;2754427;86;21056;-64
2021/06/28 10:22:44;;;;;;;6.30;5.23;;;;;;;30.29;47.04;100332.98;2792548;85;21011;-64
2021/06/28 10:26:47;;;;;;;4.58;4.17;;;;;;;30.25;44.66;100330.45;2801077;84;20984;-64
2021/06/28 10:30:50;;;;;;;5.40;2.75;;;;;;;30.29;45.77;100326.13;2820702;84;21061;-64
2021/06/28 10:34:54;;;;;;;5.33;4.08;;;;;;;30.35;46.14;100323.72;2800933;85;21000;-64
2021/06/28 10:38:57;;;;;;;2.72;2.52;;;;;;;30.48;45.56;100319.73;2820857;84;21024;-64
2021/06/28 10:42:59;;;;;;;4.78;3.00;;;;;;;30.59;44.15;100323.41;2800681;85;21075;-65
2021/06/28 10:47:07;;;;;;;4.92;3.75;;;;;;;30.70;45.93;100324.92;2820941;84;20992;-64
2021/06/28 10:51:10;;;;;;;4.40;3.47;;;;;;;30.82;44.11;100323.38;2801094;85;21015;-64
2021/06/28 10:55:24;;;;;;;3.62;3.17;;;;;;;30.92;44.00;100324.30;2800992;85;21540;-64
2021/06/28 10:59:31;;;;;;;3.87;3.47;;;;;;;31.08;44.79;100312.08;2820964;84;21029;-64
2021/06/28 11:03:36;;;;;;;4.72;4.05;;;;;;;31.23;43.83;100311.91;2800450;85;21008;-64
2021/06/28 11:07:47;;;;;;;4.72;3.72;;;;;;;31.29;43.87;100310.88;2820991;84;21008;-65
2021/06/28 11:11:55;;;;;;;3.40;3.10;;;;;;;31.29;44.63;100308.13;2820768;84;21071;-65
2021/06/28 11:16:29;;;;;;;4.60;3.55;;;;;;;31.25;45.09;100305.08;2800828;85;21043;-65
2021/06/28 11:20:37;;;;;;;4.53;4.12;;;;;;;31.31;44.15;100302.63;2787384;85;21000;-65
2021/06/28 11:24:40;;;;;;;5.12;4.08;;;;;;;31.31;44.67;100296.33;2754616;85;21297;-65
2021/06/28 11:28:43;;;;;;;4.87;4.08;;;;;;;31.26;45.72;100294.92;2754479;85;21032;-65
2021/06/28 11:33:13;;;;;;;4.22;3.50;;;;;;;31.25;45.89;100289.13;2754345;86;21028;-64
2021/06/28 11:37:16;;;;;;;4.85;4.35;;;;;;;31.37;44.98;100279.33;2754561;86;21092;-64
2021/06/28 11:41:23;;;;;;;4.87;3.95;;;;;;;31.41;44.05;100282.64;2754134;86;20972;-64
2021/06/28 11:45:31;;;;;;;3.87;3.58;;;;;;;31.48;44.00;100270.87;2754487;85;21028;-64
2021/06/28 11:49:33;;;;;;;4.35;3.85;;;;;;;31.56;43.95;100265.95;2752253;86;21055;-65
2021/06/28 11:53:36;;;;;;;4.05;3.72;;;;;;;31.65;44.13;100258.03;2754299;86;20981;-65
2021/06/28 11:57:39;;;;;;;4.17;3.75;;;;;;;31.69;43.87;100258.61;2754301;86;21072;-65
2021/06/28 12:01:56;;;;;;;5.78;5.25;;;;;;;31.73;44.08;100255.59;2754397;85;20957;-65
2021/06/28 12:05:54;;;;;;;5.47;4.72;;;;;;;31.77;43.12;100255.92;2753261;85;21024;-65
2021/06/28 12:09:59;;;;;;;6.30;3.92;;;;;;;31.56;42.53;100249.47;2744767;86;20988;-64
2021/06/28 12:14:02;;;;;;;4.08;3.30;;;;;;;31.46;42.18;100242.00;2754491;86;21020;-65
2021/06/28 12:18:07;;;;;;;9.33;4.15;;;;;;;31.49;47.10;100240.92;2754337;85;21052;-66
2021/06/28 12:22:25;;;;;;;3.55;3.25;;;;;;;31.61;48.44;100240.70;2780492;85;21063;-66
2021/06/28 12:26:27;;;;;;;3.70;3.27;;;;;;;31.68;44.58;100233.59;2800804;85;21482;-65
2021/06/28 12:30:36;;;;;;;6.58;2.75;;;;;;;31.81;46.77;100239.69;2820473;84;21026;-66
2021/06/28 12:34:38;;;;;;;4.03;3.47;;;;;;;31.86;44.12;100236.98;2800313;85;20993;-65
2021/06/28 12:38:43;;;;;;;3.92;3.55;;;;;;;31.86;45.47;100239.73;2800947;85;21062;-65
2021/06/28 12:42:49;;;;;;;4.10;3.70;;;;;;;31.90;45.79;100239.47;2800659;85;20996;-64
2021/06/28 12:46:54;;;;;;;4.75;3.20;;;;;;;32.07;44.34;100230.16;2800496;85;23347;-65
2021/06/28 12:51:06;;;;;;;4.08;3.62;;;;;;;32.15;42.74;100233.74;2820438;84;20989;-65
2021/06/28 12:55:13;;;;;;;5.97;3.33;;;;;;;32.07;42.24;100232.91;2800826;85;20996;-66
2021/06/28 12:59:38;;;;;;;8.68;4.10;;;;;;;32.07;41.49;100234.29;2800901;85;21035;-66
2021/06/28 13:03:41;;;;;;;5.60;3.92;;;;;;;32.04;40.70;100228.23;2820728;84;21048;-65
2021/06/28 13:07:44;;;;;;;4.10;3.70;;;;;;;32.08;41.11;100227.69;2800916;85;21035;-65
2021/06/28 13:11:56;;;;;;;2.83;2.60;;;;;;;32.05;41.29;100222.17;2820734;84;20976;-65
2021/06/28 13:16:24;;;;;;;4.30;3.65;;;;;;;32.09;42.12;100215.58;2800697;84;21048;-66
2021/06/28 13:20:25;;;;;;;5.28;4.12;;;;;;;32.11;43.25;100216.95;2795946;84;21039;-65
2021/06/28 13:24:31;;;;;;;3.20;2.80;;;;;;;32.19;41.66;100215.59;2746285;85;20973;-65
2021/06/28 13:28:33;;;;;;;4.70;3.42;;;;;;;32.18;41.18;100209.81;2697732;88;21024;-64
2021/06/28 13:32:36;;;;;;;3.58;3.27;;;;;;;32.03;39.34;100211.98;2747075;86;21036;-65
2021/06/28 13:36:39;;;;;;;2.87;2.60;;;;;;;31.97;39.54;100213.90;2754305;86;21024;-64
2021/06/28 13:40:44;;;;;;;3.62;3.30;;;;;;;31.91;40.45;100212.23;2746281;86;21251;-64
2021/06/28 13:45:14;;;;;;;3.33;3.02;;;;;;;31.94;41.49;100207.56;2734657;86;21060;-64
2021/06/28 13:49:22;;;;;;;5.78;2.75;;;;;;;31.96;44.74;100204.00;2750748;86;21064;-64
2021/06/28 13:53:26;;;;;;;3.65;3.15;;;;;;;32.10;41.64;100203.48;2661890;88;21083;-62
2021/06/28 13:57:30;;;;;;;4.62;2.75;;;;;;;32.11;39.87;100202.38;2735825;87;21011;-62
2021/06/28 14:01:38;;;;;;;2.15;1.95;;;;;;;32.23;39.43;100196.62;2689599;88;21017;-63
2021/06/28 14:05:44;;;;;;;2.72;2.42;;;;;;;32.29;38.37;100194.98;2736025;86;20988;-62
2021/06/28 14:09:51;;;;;;;4.10;2.47;;;;;;;32.38;38.79;100193.08;2745329;86;21011;-63
2021/06/28 14:13:55;;;;;;;2.42;2.22;;;;;;;32.39;37.76;100191.97;2703551;88;20977;-65
2021/06/28 14:17:58;;;;;;;8.18;3.33;;;;;;;32.29;37.54;100185.88;2738192;86;20997;-62
2021/06/28 14:22:01;;;;;;;2.42;2.22;;;;;;;32.43;38.85;100182.90;2752281;85;21024;-63
2021/06/28 14:26:03;;;;;;;3.37;2.08;;;;;;;32.45;36.27;100185.39;2713449;88;21067;-62
2021/06/28 14:30:15;;;;;;;2.17;1.98;;;;;;;32.59;37.77;100182.33;2710190;88;21043;-65
2021/06/28 14:34:22;;;;;;;2.30;2.10;;;;;;;32.71;36.89;100177.10;2727549;87;21075;-62
2021/06/28 14:38:26;;;;;;;1.92;1.82;;;;;;;32.78;36.91;100179.01;2713322;88;21051;-63
2021/06/28 14:42:29;;;;;;;2.70;2.30;;;;;;;32.79;36.73;100175.15;2735160;87;21083;-63
2021/06/28 14:46:33;;;;;;;2.37;2.17;;;;;;;32.83;36.94;100173.52;2735166;87;21043;-62
2021/06/28 14:50:43;;;;;;;2.70;1.52;;;;;;;32.94;36.66;100176.27;2713439;88;21166;-62
2021/06/28 14:55:14;;;;;;;3.02;2.72;;;;;;;32.97;38.50;100174.32;2713605;87;21314;-62
2021/06/28 14:59:20;;;;;;;3.08;2.75;;;;;;;33.11;37.06;100169.05;2735006;86;21035;-62
2021/06/28 15:03:29;;;;;;;3.35;2.08;;;;;;;33.12;37.67;100168.78;2713244;88;21513;-62
2021/06/28 15:07:37;;;;;;;2.60;2.40;;;;;;;33.11;37.57;100160.78;2735156;87;21070;-62
2021/06/28 15:11:40;;;;;;;3.45;2.12;;;;;;;33.08;36.72;100156.67;2713631;88;21016;-62
2021/06/28 15:15:43;;;;;;;2.92;2.72;;;;;;;33.05;37.08;100159.99;2713588;88;21061;-62
2021/06/28 15:19:47;;;;;;;2.20;2.00;;;;;;;32.97;37.24;100156.41;2713069;88;21142;-62
2021/06/28 15:23:50;;;;;;;1.98;1.57;;;;;;;32.96;36.88;100149.26;2802905;84;20996;-62
2021/06/28 15:27:55;;;;;;;3.37;2.40;;;;;;;32.80;37.40;100152.02;2808400;83;21065;-62
2021/06/28 15:31:58;;;;;;;2.27;1.95;;;;;;;32.69;37.76;100155.34;2818077;84;21272;-62
2021/06/28 15:36:01;;;;;;;2.70;2.45;;;;;;;32.73;37.72;100148.73;2808156;83;21047;-62
2021/06/28 15:40:10;;;;;;;2.65;2.37;;;;;;;32.60;37.25;100148.19;2808874;83;20994;-63
2021/06/28 15:44:13;;;;;;;7.95;3.70;;;;;;;32.43;38.53;100140.80;2809107;84;20998;-63
2021/06/28 15:48:16;;;;;;;11.85;4.47;;;;;;;32.43;39.55;100137.48;2809328;84;21027;-63
2021/06/28 15:52:19;;;;;;;118.53;44.48;;;;;;;32.44;40.70;100136.95;2815071;84;20997;-62
2021/06/28 15:56:21;;;;;;;38.33;15.25;;;;;;;32.36;40.27;100137.48;2807285;83;21023;-63
2021/06/28 16:00:25;;;;;;;14.78;7.15;;;;;;;32.46;40.94;100133.37;2815517;84;21012;-63
2021/06/28 16:04:29;;;;;;;4.72;3.15;;;;;;;32.61;39.22;100133.33;2809147;84;21035;-63
2021/06/28 16:08:32;;;;;;;3.00;2.17;;;;;;;32.69;38.36;100129.19;2809380;85;21047;-62
2021/06/28 16:12:37;;;;;;;24.12;8.93;;;;;;;32.67;37.69;100131.96;2809278;85;21027;-62
2021/06/28 16:16:43;;;;;;;4.37;2.83;;;;;;;32.70;37.37;100120.39;2829315;84;21016;-62
2021/06/28 16:20:46;;;;;;;3.33;2.83;;;;;;;32.73;37.44;100115.69;2809229;85;21054;-62
2021/06/28 16:24:51;;;;;;;3.70;3.37;;;;;;;32.71;36.69;100110.45;2800470;84;20975;-63
2021/06/28 16:28:54;;;;;;;4.92;2.95;;;;;;;32.57;39.46;100113.53;2800520;85;20975;-62
2021/06/28 16:32:57;;;;;;;5.22;3.47;;;;;;;32.61;39.63;100115.43;2796784;84;21008;-63
2021/06/28 16:36:59;;;;;;;4.50;3.12;;;;;;;32.68;40.38;100112.39;2807044;84;20937;-62
2021/06/28 16:41:02;;;;;;;11.65;6.30;;;;;;;32.49;41.28;100109.41;2800713;84;21049;-63
2021/06/28 16:45:08;;;;;;;8.73;4.65;;;;;;;32.27;41.50;100105.00;2800541;85;20991;-63
2021/06/28 16:49:12;;;;;;;5.45;3.85;;;;;;;32.17;41.21;100096.20;2800583;85;21008;-62
2021/06/28 16:53:15;;;;;;;8.85;5.20;;;;;;;32.03;40.71;100089.59;2800560;85;21031;-63
2021/06/28 16:57:18;;;;;;;3.90;3.15;;;;;;;31.74;41.36;100088.70;2820436;84;21016;-63
2021/06/28 17:01:20;;;;;;;2.20;2.10;;;;;;;31.63;40.88;100089.23;2800656;85;21014;-63
2021/06/28 17:05:24;;;;;;;3.87;2.98;;;;;;;31.52;40.44;100083.45;2800700;85;21061;-62
2021/06/28 17:09:28;;;;;;;4.08;3.62;;;;;;;31.40;40.20;100080.95;2800617;84;21061;-63
2021/06/28 17:13:30;;;;;;;3.47;2.85;;;;;;;31.30;40.39;100078.44;2799166;84;21506;-63
2021/06/28 17:17:33;;;;;;;3.02;2.35;;;;;;;31.15;39.86;100083.31;2803172;84;21007;-63
2021/06/28 17:21:35;;;;;;;3.62;3.02;;;;;;;31.02;40.02;100078.30;2800094;85;21101;-63
2021/06/28 17:25:38;;;;;;;3.30;2.62;;;;;;;30.86;40.84;100072.77;2800708;84;21041;-63
2021/06/28 17:29:41;;;;;;;7.62;4.00;;;;;;;30.77;43.34;100068.33;2816832;84;21102;-63
2021/06/28 17:33:45;;;;;;;9.03;7.03;;;;;;;30.70;45.46;100065.53;2800210;85;21061;-62
2021/06/28 17:37:59;;;;;;;15.10;6.67;;;;;;;30.62;46.26;100062.19;2801007;84;20963;-63
2021/06/28 17:42:01;;;;;;;6.10;5.00;;;;;;;30.50;46.79;100065.66;2820611;84;21044;-63
2021/06/28 17:46:06;;;;;;;5.33;3.62;;;;;;;30.42;47.33;100058.75;2799841;84;21004;-62
2021/06/28 17:50:10;;;;;;;8.80;3.42;;;;;;;30.34;47.75;100050.47;2800678;84;21011;-62
2021/06/28 17:54:13;;;;;;;3.70;3.40;;;;;;;30.26;47.39;100049.57;2799551;85;21049;-63
2021/06/28 17:58:15;;;;;;;4.97;3.45;;;;;;;30.26;47.39;100049.57;2799761;84;21032;-63
2021/06/28 18:02:18;;;;;;;8.15;3.70;;;;;;;30.16;48.58;100058.55;2798583;84;21012;-64
2021/06/28 18:06:24;;;;;;;8.65;3.65;;;;;;;30.00;49.86;100052.09;2809097;84;21028;-64
2021/06/28 18:10:27;;;;;;;6.05;4.33;;;;;;;29.85;50.54;100056.91;2788120;84;21015;-64
2021/06/28 18:14:32;;;;;;;3.98;3.58;;;;;;;29.71;52.66;100051.03;2814254;84;21016;-64
2021/06/28 18:18:37;;;;;;;3.85;3.15;;;;;;;29.57;54.33;100053.91;2800330;84;21050;-64
2021/06/28 18:22:40;;;;;;;7.17;3.62;;;;;;;29.43;52.33;100051.56;2794667;84;20987;-64
2021/06/28 18:26:45;;;;;;;4.72;4.28;;;;;;;29.28;52.05;100054.09;2760176;86;21102;-64
2021/06/28 18:30:47;;;;;;;4.33;3.87;;;;;;;29.17;53.65;100050.41;2781802;85;21017;-64
2021/06/28 18:34:52;;;;;;;4.40;3.42;;;;;;;29.03;53.80;100055.45;2758971;85;20992;-64
2021/06/28 18:38:54;;;;;;;4.80;4.30;;;;;;;28.86;51.09;100048.13;2781766;85;21052;-64
2021/06/28 18:42:57;;;;;;;4.80;4.40;;;;;;;28.74;54.25;100048.22;2781349;85;20995;-64